createdAt,value
2017-10-15T00:00:03.892Z,12.65
2017-10-15T00:01:02.968Z,12.65
2017-10-15T00:02:03.417Z,12.65
2017-10-15T00:03:03.913Z,12.67
2017-10-15T00:04:04.045Z,12.68
2017-10-15T00:05:03.610Z,12.72
2017-10-15T00:06:03.339Z,12.75
2017-10-15T00:07:03.484Z,12.76
2017-10-15T00:08:04.009Z,12.75
2017-10-15T00:09:02.986Z,12.75
2017-10-15T00:10:03.284Z,12.78
2017-10-15T00:11:03.855Z,12.80
2017-10-15T00:12:03.356Z,12.80
2017-10-15T00:13:04.071Z,12.80
2017-10-15T00:14:03.427Z,12.82
2017-10-15T00:15:03.881Z,12.83
2017-10-15T00:16:03.724Z,12.82
2017-10-15T00:17:02.900Z,12.85
2017-10-15T00:18:03.146Z,12.86
2017-10-15T00:19:03.419Z,12.87
2017-10-15T00:20:03.195Z,12.87
2017-10-15T00:21:04.125Z,12.86
2017-10-15T00:22:03.536Z,12.87
2017-10-15T00:23:03.320Z,12.87
2017-10-15T00:24:03.864Z,12.93
2017-10-15T00:25:02.790Z,12.93
2017-10-15T00:26:03.832Z,12.95
2017-10-15T00:27:02.826Z,12.94
2017-10-15T00:28:02.546Z,12.94
2017-10-15T00:29:03.990Z,12.95
2017-10-15T00:30:03.546Z,12.94
2017-10-15T00:31:02.685Z,12.93
2017-10-15T00:32:03.937Z,12.90
2017-10-15T00:33:02.866Z,12.86
2017-10-15T00:34:03.039Z,12.83
2017-10-15T00:35:03.412Z,12.86
2017-10-15T00:36:03.880Z,12.85
2017-10-15T00:37:02.974Z,12.83
2017-10-15T00:38:03.660Z,12.83
2017-10-15T00:39:03.658Z,12.82
2017-10-15T00:40:03.191Z,12.79
2017-10-15T00:41:03.372Z,12.76
2017-10-15T00:42:03.718Z,12.73
2017-10-15T00:43:03.299Z,12.68
2017-10-15T00:44:03.352Z,12.62
2017-10-15T00:45:03.333Z,12.60
2017-10-15T00:46:03.471Z,12.57
2017-10-15T00:47:03.475Z,12.55
2017-10-15T00:48:02.867Z,12.53
2017-10-15T00:49:03.224Z,12.50
2017-10-15T00:50:03.427Z,12.46
2017-10-15T00:51:03.430Z,12.45
2017-10-15T00:52:03.333Z,12.45
2017-10-15T00:53:03.208Z,12.43
2017-10-15T00:54:03.918Z,12.42
2017-10-15T00:55:02.581Z,12.39
2017-10-15T00:56:02.600Z,12.40
2017-10-15T00:57:03.480Z,12.37
2017-10-15T00:58:03.527Z,12.35
2017-10-15T00:59:02.754Z,12.32
2017-10-15T01:00:03.555Z,12.28
2017-10-15T01:01:02.768Z,12.27
2017-10-15T01:02:02.718Z,12.25
2017-10-15T01:03:02.786Z,12.25
2017-10-15T01:04:03.218Z,12.28
2017-10-15T01:05:03.769Z,12.29
2017-10-15T01:06:02.755Z,12.31
2017-10-15T01:07:03.128Z,12.27
2017-10-15T01:08:03.330Z,12.22
2017-10-15T01:09:03.120Z,12.24
2017-10-15T01:10:04.141Z,12.24
2017-10-15T01:11:03.137Z,12.21
2017-10-15T01:12:02.955Z,12.22
2017-10-15T01:13:02.819Z,12.20
2017-10-15T01:14:02.577Z,12.18
2017-10-15T01:15:03.611Z,12.18
2017-10-15T01:16:03.028Z,12.18
2017-10-15T01:17:02.883Z,12.20
2017-10-15T01:18:03.199Z,12.20
2017-10-15T01:19:03.473Z,12.22
2017-10-15T01:20:03.761Z,12.22
2017-10-15T01:21:02.699Z,12.22
2017-10-15T01:22:03.047Z,12.21
2017-10-15T01:23:03.636Z,12.20
2017-10-15T01:24:02.830Z,12.17
2017-10-15T01:25:02.940Z,12.17
2017-10-15T01:26:03.340Z,12.17
2017-10-15T01:27:03.658Z,12.12
2017-10-15T01:28:02.951Z,12.09
2017-10-15T01:29:03.749Z,12.09
2017-10-15T01:30:02.642Z,12.10
2017-10-15T01:31:02.570Z,12.12
2017-10-15T01:32:02.838Z,12.10
2017-10-15T01:33:03.208Z,12.07
2017-10-15T01:34:03.327Z,12.07
2017-10-15T01:35:03.719Z,12.06
2017-10-15T01:36:03.008Z,12.07
2017-10-15T01:37:04.109Z,12.07
2017-10-15T01:38:03.346Z,12.10
2017-10-15T01:39:03.737Z,12.09
2017-10-15T01:40:02.830Z,12.06
2017-10-15T01:41:03.313Z,12.03
2017-10-15T01:42:05.110Z,12.02
2017-10-15T01:43:03.740Z,11.99
2017-10-15T01:44:02.919Z,11.97
2017-10-15T01:45:02.954Z,11.95
2017-10-15T01:46:03.093Z,11.95
2017-10-15T01:47:03.413Z,11.91
2017-10-15T01:48:03.340Z,11.88
2017-10-15T01:49:03.610Z,11.84
2017-10-15T01:50:02.752Z,11.83
2017-10-15T01:51:02.668Z,11.81
2017-10-15T01:52:02.502Z,11.77
2017-10-15T01:53:03.139Z,11.80
2017-10-15T01:54:03.873Z,11.84
2017-10-15T01:55:03.071Z,11.90
2017-10-15T01:56:03.020Z,11.94
2017-10-15T01:57:03.427Z,11.91
2017-10-15T01:58:03.304Z,11.95
2017-10-15T01:59:04.069Z,11.99
2017-10-15T02:00:03.391Z,11.97
2017-10-15T02:01:02.554Z,11.99
2017-10-15T02:02:03.111Z,11.99
2017-10-15T02:03:03.521Z,11.95
2017-10-15T02:04:04.277Z,11.97
2017-10-15T02:05:03.601Z,11.97
2017-10-15T02:06:02.826Z,11.95
2017-10-15T02:07:02.877Z,11.97
2017-10-15T02:08:02.860Z,11.97
2017-10-15T02:09:02.779Z,11.97
2017-10-15T02:10:03.456Z,12.00
2017-10-15T02:11:03.879Z,11.99
2017-10-15T02:12:03.423Z,12.00
2017-10-15T02:13:03.410Z,12.00
2017-10-15T02:14:03.718Z,11.99
2017-10-15T02:15:02.913Z,11.97
2017-10-15T02:16:03.611Z,11.95
2017-10-15T02:17:02.712Z,11.95
2017-10-15T02:18:03.135Z,11.94
2017-10-15T02:19:03.581Z,11.94
2017-10-15T02:20:03.557Z,11.94
2017-10-15T02:21:02.767Z,11.95
2017-10-15T02:22:03.190Z,11.97
2017-10-15T02:23:03.540Z,11.95
2017-10-15T02:24:03.706Z,11.94
2017-10-15T02:25:02.929Z,11.88
2017-10-15T02:26:03.423Z,11.88
2017-10-15T02:27:05.021Z,11.87
2017-10-15T02:28:03.505Z,11.84
2017-10-15T02:29:03.058Z,11.81
2017-10-15T02:30:03.232Z,11.78
2017-10-15T02:31:03.242Z,11.75
2017-10-15T02:32:03.466Z,11.73
2017-10-15T02:33:03.166Z,11.72
2017-10-15T02:34:03.307Z,11.70
2017-10-15T02:35:03.817Z,11.69
2017-10-15T02:36:03.211Z,11.68
2017-10-15T02:37:02.915Z,11.68
2017-10-15T02:38:03.733Z,11.66
2017-10-15T02:39:02.653Z,11.63
2017-10-15T02:40:02.925Z,11.60
2017-10-15T02:41:03.036Z,11.57
2017-10-15T02:42:03.329Z,11.57
2017-10-15T02:43:04.102Z,11.57
2017-10-15T02:44:04.521Z,11.54
2017-10-15T02:45:03.390Z,11.55
2017-10-15T02:46:03.300Z,11.57
2017-10-15T02:47:02.546Z,11.59
2017-10-15T02:48:03.814Z,11.59
2017-10-15T02:49:03.677Z,11.62
2017-10-15T02:50:02.856Z,11.59
2017-10-15T02:51:03.067Z,11.60
2017-10-15T02:52:02.978Z,11.65
2017-10-15T02:53:02.902Z,11.69
2017-10-15T02:54:03.576Z,11.65
2017-10-15T02:55:03.086Z,11.63
2017-10-15T02:56:03.270Z,11.63
2017-10-15T02:57:03.666Z,11.66
2017-10-15T02:58:03.248Z,11.66
2017-10-15T02:59:03.675Z,11.68
2017-10-15T03:00:02.893Z,11.66
2017-10-15T03:01:03.132Z,11.66
2017-10-15T03:02:03.262Z,11.68
2017-10-15T03:03:03.704Z,11.68
2017-10-15T03:04:02.604Z,11.65
2017-10-15T03:05:03.349Z,11.65
2017-10-15T03:06:03.571Z,11.62
2017-10-15T03:07:03.060Z,11.63
2017-10-15T03:08:03.105Z,11.63
2017-10-15T03:09:03.017Z,11.59
2017-10-15T03:10:03.209Z,11.57
2017-10-15T03:11:03.216Z,11.52
2017-10-15T03:12:03.609Z,11.51
2017-10-15T03:13:02.849Z,11.47
2017-10-15T03:14:02.562Z,11.45
2017-10-15T03:15:03.277Z,11.40
2017-10-15T03:16:02.964Z,11.37
2017-10-15T03:17:02.907Z,11.35
2017-10-15T03:18:02.793Z,11.33
2017-10-15T03:19:02.931Z,11.32
2017-10-15T03:20:03.543Z,11.30
2017-10-15T03:21:02.529Z,11.30
2017-10-15T03:22:02.931Z,11.27
2017-10-15T03:23:02.998Z,11.27
2017-10-15T03:24:02.961Z,11.27
2017-10-15T03:25:03.251Z,11.29
2017-10-15T03:26:02.981Z,11.32
2017-10-15T03:27:03.408Z,11.37
2017-10-15T03:28:02.973Z,11.41
2017-10-15T03:29:02.983Z,11.45
2017-10-15T03:30:03.487Z,11.54
2017-10-15T03:31:02.985Z,11.62
2017-10-15T03:32:02.909Z,11.65
2017-10-15T03:33:02.689Z,11.66
2017-10-15T03:34:03.064Z,11.70
2017-10-15T03:35:03.654Z,11.69
2017-10-15T03:36:02.995Z,11.68
2017-10-15T03:37:02.907Z,11.66
2017-10-15T03:38:02.516Z,11.66
2017-10-15T03:39:02.395Z,11.62
2017-10-15T03:40:03.724Z,11.60
2017-10-15T03:41:03.249Z,11.57
2017-10-15T03:42:03.074Z,11.52
2017-10-15T03:43:02.981Z,11.50
2017-10-15T03:44:03.292Z,11.48
2017-10-15T03:45:03.376Z,11.48
2017-10-15T03:46:02.356Z,11.48
2017-10-15T03:47:03.717Z,11.47
2017-10-15T03:48:03.241Z,11.48
2017-10-15T03:49:02.595Z,11.48
2017-10-15T03:50:03.050Z,11.50
2017-10-15T03:51:03.755Z,11.52
2017-10-15T03:52:03.623Z,11.54
2017-10-15T03:53:03.049Z,11.54
2017-10-15T03:54:02.874Z,11.54
2017-10-15T03:55:03.422Z,11.55
2017-10-15T03:56:02.761Z,11.52
2017-10-15T03:57:03.664Z,11.51
2017-10-15T03:58:02.657Z,11.50
2017-10-15T03:59:03.166Z,11.50
2017-10-15T04:00:03.217Z,11.55
2017-10-15T04:01:03.520Z,11.62
2017-10-15T04:02:02.899Z,11.65
2017-10-15T04:03:03.182Z,11.68
2017-10-15T04:04:03.564Z,11.68
2017-10-15T04:05:03.068Z,11.70
2017-10-15T04:06:03.353Z,11.70
2017-10-15T04:07:02.766Z,11.73
2017-10-15T04:08:03.710Z,11.72
2017-10-15T04:09:02.590Z,11.75
2017-10-15T04:10:02.796Z,11.77
2017-10-15T04:11:03.191Z,11.78
2017-10-15T04:12:03.572Z,11.77
2017-10-15T04:13:03.573Z,11.78
2017-10-15T04:14:02.517Z,11.80
2017-10-15T04:15:03.312Z,11.81
2017-10-15T04:16:03.146Z,11.83
2017-10-15T04:17:03.167Z,11.80
2017-10-15T04:18:03.725Z,11.80
2017-10-15T04:19:02.733Z,11.78
2017-10-15T04:20:02.681Z,11.75
2017-10-15T04:21:02.641Z,11.73
2017-10-15T04:22:02.603Z,11.77
2017-10-15T04:23:03.264Z,11.78
2017-10-15T04:24:03.917Z,11.77
2017-10-15T04:25:02.726Z,11.77
2017-10-15T04:26:02.942Z,11.77
2017-10-15T04:27:02.864Z,11.73
2017-10-15T04:28:03.126Z,11.70
2017-10-15T04:29:03.812Z,11.72
2017-10-15T04:30:02.610Z,11.72
2017-10-15T04:31:02.415Z,11.73
2017-10-15T04:32:03.712Z,11.73
2017-10-15T04:33:03.123Z,11.75
2017-10-15T04:34:02.766Z,11.72
2017-10-15T04:35:03.459Z,11.70
2017-10-15T04:36:02.851Z,11.68
2017-10-15T04:37:03.220Z,11.68
2017-10-15T04:38:03.236Z,11.65
2017-10-15T04:39:03.547Z,11.62
2017-10-15T04:40:02.934Z,11.57
2017-10-15T04:41:03.421Z,11.54
2017-10-15T04:42:02.603Z,11.51
2017-10-15T04:43:02.916Z,11.50
2017-10-15T04:44:02.959Z,11.47
2017-10-15T04:45:02.965Z,11.47
2017-10-15T04:46:03.485Z,11.45
2017-10-15T04:47:02.990Z,11.47
2017-10-15T04:48:03.359Z,11.48
2017-10-15T04:49:02.756Z,11.48
2017-10-15T04:50:02.602Z,11.48
2017-10-15T04:51:02.804Z,11.50
2017-10-15T04:52:03.663Z,11.48
2017-10-15T04:53:03.113Z,11.51
2017-10-15T04:54:02.934Z,11.55
2017-10-15T04:55:02.609Z,11.57
2017-10-15T04:56:03.035Z,11.60
2017-10-15T04:57:02.773Z,11.60
2017-10-15T04:58:03.465Z,11.66
2017-10-15T04:59:02.941Z,11.69
2017-10-15T05:00:03.306Z,11.69
2017-10-15T05:01:03.685Z,11.69
2017-10-15T05:02:02.806Z,11.70
2017-10-15T05:03:03.495Z,11.78
2017-10-15T05:04:02.783Z,11.80
2017-10-15T05:05:02.562Z,11.78
2017-10-15T05:06:03.023Z,11.73
2017-10-15T05:07:03.248Z,11.72
2017-10-15T05:08:03.620Z,11.69
2017-10-15T05:09:03.195Z,11.65
2017-10-15T05:10:03.507Z,11.60
2017-10-15T05:11:02.396Z,11.59
2017-10-15T05:12:02.355Z,11.55
2017-10-15T05:13:02.357Z,11.54
2017-10-15T05:14:03.202Z,11.51
2017-10-15T05:15:03.199Z,11.48
2017-10-15T05:16:03.232Z,11.47
2017-10-15T05:17:02.747Z,11.48
2017-10-15T05:18:02.741Z,11.45
2017-10-15T05:19:03.273Z,11.47
2017-10-15T05:20:03.079Z,11.47
2017-10-15T05:21:03.368Z,11.48
2017-10-15T05:22:03.214Z,11.48
2017-10-15T05:23:03.160Z,11.47
2017-10-15T05:24:03.446Z,11.45
2017-10-15T05:25:02.873Z,11.41
2017-10-15T05:26:02.961Z,11.41
2017-10-15T05:27:03.161Z,11.41
2017-10-15T05:28:03.600Z,11.40
2017-10-15T05:29:03.889Z,11.36
2017-10-15T05:30:03.169Z,11.35
2017-10-15T05:31:02.658Z,11.35
2017-10-15T05:32:02.777Z,11.32
2017-10-15T05:33:03.344Z,11.32
2017-10-15T05:34:03.569Z,11.30
2017-10-15T05:35:02.511Z,11.27
2017-10-15T05:36:02.671Z,11.29
2017-10-15T05:37:02.402Z,11.30
2017-10-15T05:38:02.685Z,11.27
2017-10-15T05:39:02.658Z,11.27
2017-10-15T05:40:03.481Z,11.26
2017-10-15T05:41:02.409Z,11.25
2017-10-15T05:42:02.969Z,11.25
2017-10-15T05:43:03.169Z,11.25
2017-10-15T05:44:03.134Z,11.29
2017-10-15T05:45:02.332Z,11.30
2017-10-15T05:46:03.607Z,11.29
2017-10-15T05:47:02.801Z,11.29
2017-10-15T05:48:02.751Z,11.29
2017-10-15T05:49:02.745Z,11.30
2017-10-15T05:50:02.733Z,11.30
2017-10-15T05:51:03.133Z,11.32
2017-10-15T05:52:03.408Z,11.30
2017-10-15T05:53:03.158Z,11.35
2017-10-15T05:54:03.145Z,11.35
2017-10-15T05:55:03.120Z,11.35
2017-10-15T05:56:03.748Z,11.33
2017-10-15T05:57:02.903Z,11.35
2017-10-15T05:58:03.698Z,11.36
2017-10-15T05:59:02.682Z,11.36
2017-10-15T06:00:03.018Z,11.40
2017-10-15T06:01:03.627Z,11.41
2017-10-15T06:02:02.741Z,11.43
2017-10-15T06:03:03.043Z,11.44
2017-10-15T06:04:03.351Z,11.45
2017-10-15T06:05:03.189Z,11.47
2017-10-15T06:06:02.680Z,11.45
2017-10-15T06:07:03.133Z,11.44
2017-10-15T06:08:03.649Z,11.43
2017-10-15T06:09:03.112Z,11.40
2017-10-15T06:10:03.740Z,11.37
2017-10-15T06:11:03.267Z,11.37
2017-10-15T06:12:04.032Z,11.36
2017-10-15T06:13:03.408Z,11.37
2017-10-15T06:14:02.811Z,11.36
2017-10-15T06:15:02.845Z,11.36
2017-10-15T06:16:03.302Z,11.37
2017-10-15T06:17:03.818Z,11.41
2017-10-15T06:18:03.377Z,11.54
2017-10-15T06:19:02.885Z,11.83
2017-10-15T06:20:03.273Z,12.20
2017-10-15T06:21:02.781Z,12.49
2017-10-15T06:22:03.070Z,12.73
2017-10-15T06:23:03.516Z,12.97
2017-10-15T06:24:02.906Z,13.15
2017-10-15T06:25:03.427Z,13.37
2017-10-15T06:26:02.859Z,13.54
2017-10-15T06:27:03.327Z,13.68
2017-10-15T06:28:02.863Z,13.83
2017-10-15T06:29:03.449Z,13.99
2017-10-15T06:30:02.507Z,14.17
2017-10-15T06:31:03.071Z,14.40
2017-10-15T06:32:04.175Z,14.48
2017-10-15T06:33:02.655Z,14.58
2017-10-15T06:34:03.038Z,14.81
2017-10-15T06:35:03.352Z,14.94
2017-10-15T06:36:02.786Z,15.02
2017-10-15T06:37:02.959Z,15.17
2017-10-15T06:38:03.936Z,15.25
2017-10-15T06:39:03.502Z,15.03
2017-10-15T06:40:03.095Z,14.72
2017-10-15T06:41:03.154Z,14.44
2017-10-15T06:42:03.293Z,14.04
2017-10-15T06:43:02.686Z,13.74
2017-10-15T06:44:03.617Z,13.54
2017-10-15T06:45:03.005Z,13.39
2017-10-15T06:46:03.302Z,13.27
2017-10-15T06:47:02.310Z,13.18
2017-10-15T06:48:16.974Z,13.12
2017-10-15T06:49:11.376Z,13.05
2017-10-15T06:50:16.842Z,13.03
2017-10-15T06:51:03.300Z,13.01
2017-10-15T06:52:03.745Z,13.01
2017-10-15T06:53:03.163Z,13.00
2017-10-15T06:54:03.401Z,12.98
2017-10-15T06:55:02.910Z,12.97
2017-10-15T06:56:03.630Z,12.94
2017-10-15T06:57:02.741Z,12.93
2017-10-15T06:58:03.442Z,12.95
2017-10-15T06:59:02.800Z,12.97
2017-10-15T07:00:03.223Z,13.00
2017-10-15T07:01:02.709Z,13.08
2017-10-15T07:02:03.165Z,13.25
2017-10-15T07:03:03.325Z,13.93
2017-10-15T07:04:03.630Z,15.02
2017-10-15T07:05:03.352Z,15.77
2017-10-15T07:06:02.383Z,16.31
2017-10-15T07:07:02.454Z,16.87
2017-10-15T07:08:03.129Z,17.39
2017-10-15T07:09:03.662Z,17.89
2017-10-15T07:10:02.629Z,18.29
2017-10-15T07:11:02.837Z,18.50
2017-10-15T07:12:03.430Z,18.43
2017-10-15T07:13:02.612Z,18.34
2017-10-15T07:14:04.056Z,18.07
2017-10-15T07:15:02.976Z,17.68
2017-10-15T07:16:03.401Z,17.08
2017-10-15T07:17:02.611Z,16.57
2017-10-15T07:18:03.208Z,16.16
2017-10-15T07:19:03.934Z,15.88
2017-10-15T07:20:04.265Z,15.72
2017-10-15T07:21:03.104Z,15.58
2017-10-15T07:22:03.131Z,15.46
2017-10-15T07:23:03.679Z,15.68
2017-10-15T07:24:02.437Z,16.04
2017-10-15T07:25:03.128Z,16.21
2017-10-15T07:26:03.080Z,16.20
2017-10-15T07:27:03.400Z,16.12
2017-10-15T07:28:03.641Z,15.91
2017-10-15T07:29:02.733Z,15.70
2017-10-15T07:30:03.728Z,15.52
2017-10-15T07:31:03.294Z,15.36
2017-10-15T07:32:03.411Z,15.31
2017-10-15T07:33:02.374Z,15.22
2017-10-15T07:34:02.240Z,15.19
2017-10-15T07:35:03.642Z,15.18
2017-10-15T07:36:02.478Z,15.14
2017-10-15T07:37:02.435Z,15.09
2017-10-15T07:38:02.310Z,15.06
2017-10-15T07:39:03.547Z,14.99
2017-10-15T07:40:02.571Z,15.00
2017-10-15T07:41:03.448Z,14.99
2017-10-15T07:42:02.874Z,14.96
2017-10-15T07:43:03.268Z,14.97
2017-10-15T07:44:02.370Z,14.97
2017-10-15T07:45:02.891Z,14.97
2017-10-15T07:46:03.756Z,14.96
2017-10-15T07:47:02.855Z,14.92
2017-10-15T07:48:03.073Z,14.89
2017-10-15T07:49:03.283Z,14.91
2017-10-15T07:50:02.566Z,14.92
2017-10-15T07:51:03.815Z,14.96
2017-10-15T07:52:03.322Z,14.96
2017-10-15T07:53:03.003Z,14.96
2017-10-15T07:54:03.128Z,14.99
2017-10-15T07:55:03.493Z,15.00
2017-10-15T07:56:02.951Z,15.02
2017-10-15T07:57:03.286Z,15.03
2017-10-15T07:58:03.167Z,15.00
2017-10-15T07:59:02.732Z,15.00
2017-10-15T08:00:03.130Z,15.02
2017-10-15T08:01:03.583Z,15.02
2017-10-15T08:02:02.649Z,15.03
2017-10-15T08:03:03.545Z,15.06
2017-10-15T08:04:03.238Z,15.06
2017-10-15T08:05:02.957Z,15.07
2017-10-15T08:06:16.741Z,15.09
2017-10-15T08:07:03.142Z,15.09
2017-10-15T08:08:03.667Z,15.09
2017-10-15T08:09:03.042Z,15.10
2017-10-15T08:10:03.381Z,15.11
2017-10-15T08:11:02.860Z,15.14
2017-10-15T08:12:03.107Z,15.14
2017-10-15T08:13:04.041Z,15.17
2017-10-15T08:14:03.153Z,15.18
2017-10-15T08:15:04.991Z,15.19
2017-10-15T08:16:03.238Z,15.24
2017-10-15T08:17:03.341Z,15.25
2017-10-15T08:18:03.793Z,15.25
2017-10-15T08:19:03.084Z,15.25
2017-10-15T08:20:03.417Z,15.27
2017-10-15T08:21:02.359Z,15.33
2017-10-15T08:22:03.045Z,15.39
2017-10-15T08:23:04.446Z,15.43
2017-10-15T08:24:02.776Z,15.44
2017-10-15T08:25:03.398Z,15.49
2017-10-15T08:26:02.628Z,15.52
2017-10-15T08:27:02.321Z,15.52
2017-10-15T08:28:02.769Z,15.54
2017-10-15T08:29:03.401Z,15.55
2017-10-15T08:30:03.040Z,15.59
2017-10-15T08:31:03.313Z,15.65
2017-10-15T08:32:02.542Z,15.67
2017-10-15T08:33:03.574Z,15.68
2017-10-15T08:34:03.990Z,15.72
2017-10-15T08:35:03.992Z,15.73
2017-10-15T08:36:03.166Z,15.77
2017-10-15T08:37:02.912Z,15.84
2017-10-15T08:38:03.420Z,15.98
2017-10-15T08:39:03.127Z,16.47
2017-10-15T08:40:03.838Z,17.39
2017-10-15T08:41:03.535Z,18.95
2017-10-15T08:42:02.727Z,20.75
2017-10-15T08:43:03.107Z,22.45
2017-10-15T08:44:02.714Z,23.39
2017-10-15T08:45:03.887Z,23.95
2017-10-15T08:46:04.718Z,24.63
2017-10-15T08:47:04.294Z,25.16
2017-10-15T08:48:02.993Z,25.68
2017-10-15T08:49:03.416Z,26.26
2017-10-15T08:50:03.208Z,26.84
2017-10-15T08:51:03.511Z,27.32
2017-10-15T08:52:03.323Z,27.74
2017-10-15T08:53:03.128Z,28.17
2017-10-15T08:54:02.732Z,28.59
2017-10-15T08:55:03.345Z,28.79
2017-10-15T08:56:02.996Z,29.02
2017-10-15T08:57:03.399Z,29.57
2017-10-15T08:58:03.448Z,29.82
2017-10-15T08:59:02.857Z,29.61
2017-10-15T09:00:03.059Z,29.78
2017-10-15T09:01:04.635Z,30.30
2017-10-15T09:02:03.215Z,30.10
2017-10-15T09:03:03.442Z,29.78
2017-10-15T09:04:02.870Z,29.34
2017-10-15T09:05:02.979Z,29.57
2017-10-15T09:06:03.666Z,30.05
2017-10-15T09:07:03.107Z,30.25
2017-10-15T09:08:03.168Z,29.69
2017-10-15T09:09:02.490Z,29.36
2017-10-15T09:10:03.230Z,29.65
2017-10-15T09:11:03.775Z,30.00
2017-10-15T09:12:03.881Z,30.25
2017-10-15T09:13:03.225Z,30.35
2017-10-15T09:14:02.939Z,30.54
2017-10-15T09:15:03.080Z,30.91
2017-10-15T09:16:03.717Z,31.65
2017-10-15T09:17:02.771Z,32.15
2017-10-15T09:18:03.344Z,32.29
2017-10-15T09:19:02.802Z,32.07
2017-10-15T09:20:03.804Z,31.17
2017-10-15T09:21:03.241Z,30.94
2017-10-15T09:22:02.816Z,30.87
2017-10-15T09:23:03.697Z,30.91
2017-10-15T09:24:03.179Z,31.02
2017-10-15T09:25:02.873Z,31.58
2017-10-15T09:26:03.395Z,31.54
2017-10-15T09:27:02.657Z,31.66
2017-10-15T09:28:03.240Z,31.74
2017-10-15T09:29:04.140Z,31.84
2017-10-15T09:30:03.383Z,31.34
2017-10-15T09:31:02.638Z,31.96
2017-10-15T09:32:02.984Z,32.43
2017-10-15T09:33:03.609Z,32.56
2017-10-15T09:34:03.565Z,33.00
2017-10-15T09:35:03.264Z,33.01
2017-10-15T09:36:02.964Z,33.36
2017-10-15T09:37:03.612Z,32.77
2017-10-15T09:38:02.803Z,32.08
2017-10-15T09:39:03.719Z,32.49
2017-10-15T09:40:03.515Z,33.12
2017-10-15T09:41:03.181Z,33.05
2017-10-15T09:42:02.629Z,33.19
2017-10-15T09:43:02.887Z,32.96
2017-10-15T09:44:03.335Z,33.52
2017-10-15T09:45:03.115Z,33.94
2017-10-15T09:46:03.219Z,33.37
2017-10-15T09:47:03.110Z,33.32
2017-10-15T09:48:03.543Z,33.52
2017-10-15T09:49:03.253Z,33.42
2017-10-15T09:50:03.199Z,33.86
2017-10-15T09:51:02.848Z,33.69
2017-10-15T09:52:02.856Z,33.87
2017-10-15T09:53:03.371Z,34.25
2017-10-15T09:54:03.007Z,34.67
2017-10-15T09:55:04.047Z,34.77
2017-10-15T09:56:03.536Z,34.89
2017-10-15T09:57:03.169Z,34.81
2017-10-15T09:58:02.654Z,34.88
2017-10-15T09:59:03.189Z,34.97
2017-10-15T10:00:02.303Z,35.17
2017-10-15T10:01:03.815Z,34.92
2017-10-15T10:02:03.358Z,34.83
2017-10-15T10:03:02.418Z,34.83
2017-10-15T10:04:02.979Z,34.71
2017-10-15T10:05:03.658Z,34.40
2017-10-15T10:06:03.626Z,34.27
2017-10-15T10:07:02.556Z,34.51
2017-10-15T10:08:02.569Z,34.23
2017-10-15T10:09:03.280Z,34.03
2017-10-15T10:10:02.516Z,34.33
2017-10-15T10:11:02.584Z,34.64
2017-10-15T10:12:03.251Z,34.88
2017-10-15T10:13:02.345Z,35.12
2017-10-15T10:14:02.634Z,35.34
2017-10-15T10:15:03.170Z,35.29
2017-10-15T10:16:02.540Z,35.42
2017-10-15T10:17:02.735Z,35.70
2017-10-15T10:18:04.110Z,35.71
2017-10-15T10:19:02.446Z,35.48
2017-10-15T10:20:02.981Z,35.11
2017-10-15T10:21:03.279Z,35.10
2017-10-15T10:22:02.586Z,35.00
2017-10-15T10:23:03.137Z,35.18
2017-10-15T10:24:04.105Z,35.26
2017-10-15T10:25:03.620Z,35.45
2017-10-15T10:26:03.082Z,35.49
2017-10-15T10:27:03.418Z,35.29
2017-10-15T10:28:02.684Z,35.26
2017-10-15T10:29:04.026Z,34.95
2017-10-15T10:30:03.974Z,35.18
2017-10-15T10:31:04.243Z,34.97
2017-10-15T10:32:02.785Z,34.95
2017-10-15T10:33:03.849Z,34.77
2017-10-15T10:34:04.284Z,35.02
2017-10-15T10:35:02.742Z,35.29
2017-10-15T10:36:03.336Z,35.58
2017-10-15T10:37:02.608Z,35.64
2017-10-15T10:38:03.711Z,35.79
2017-10-15T10:39:03.846Z,35.68
2017-10-15T10:40:03.271Z,35.52
2017-10-15T10:41:03.701Z,35.78
2017-10-15T10:42:03.259Z,36.09
2017-10-15T10:43:02.536Z,36.72
2017-10-15T10:44:02.988Z,36.51
2017-10-15T10:45:03.516Z,36.77
2017-10-15T10:46:02.904Z,36.80
2017-10-15T10:47:03.321Z,36.79
2017-10-15T10:48:02.455Z,36.45
2017-10-15T10:49:02.996Z,35.90
2017-10-15T10:50:03.951Z,35.71
2017-10-15T10:51:03.189Z,35.88
2017-10-15T10:52:02.237Z,36.24
2017-10-15T10:53:02.777Z,36.62
2017-10-15T10:54:03.061Z,36.86
2017-10-15T10:55:02.699Z,35.78
2017-10-15T10:56:03.166Z,35.93
2017-10-15T10:57:02.803Z,36.01
2017-10-15T10:58:03.178Z,36.09
2017-10-15T10:59:02.501Z,35.58
2017-10-15T11:00:02.514Z,35.82
2017-10-15T11:01:04.156Z,36.02
2017-10-15T11:02:02.827Z,36.24
2017-10-15T11:03:03.317Z,35.90
2017-10-15T11:04:03.231Z,36.27
2017-10-15T11:05:03.952Z,36.16
2017-10-15T11:06:03.335Z,36.24
2017-10-15T11:07:03.724Z,36.05
2017-10-15T11:08:03.193Z,36.20
2017-10-15T11:09:03.845Z,36.18
2017-10-15T11:10:03.536Z,35.92
2017-10-15T11:11:02.837Z,35.66
2017-10-15T11:12:03.769Z,35.74
2017-10-15T11:13:03.388Z,36.24
2017-10-15T11:14:02.951Z,36.24
2017-10-15T11:15:03.486Z,36.27
2017-10-15T11:16:02.981Z,36.12
2017-10-15T11:17:02.469Z,36.14
2017-10-15T11:18:03.334Z,36.25
2017-10-15T11:19:02.449Z,35.83
2017-10-15T11:20:03.092Z,35.61
2017-10-15T11:21:03.590Z,35.36
2017-10-15T11:22:03.024Z,35.02
2017-10-15T11:23:03.562Z,35.56
2017-10-15T11:24:03.313Z,35.92
2017-10-15T11:25:03.211Z,36.61
2017-10-15T11:26:02.886Z,36.80
2017-10-15T11:27:03.373Z,36.83
2017-10-15T11:28:03.073Z,36.84
2017-10-15T11:29:03.397Z,36.91
2017-10-15T11:30:02.501Z,36.80
2017-10-15T11:31:02.611Z,36.76
2017-10-15T11:32:03.681Z,36.18
2017-10-15T11:33:03.784Z,35.76
2017-10-15T11:34:03.641Z,36.07
2017-10-15T11:35:03.884Z,36.17
2017-10-15T11:36:04.011Z,36.24
2017-10-15T11:37:03.589Z,36.36
2017-10-15T11:38:03.819Z,36.17
2017-10-15T11:39:03.871Z,35.70
2017-10-15T11:40:03.565Z,35.36
2017-10-15T11:41:03.511Z,35.22
2017-10-15T11:42:02.597Z,35.73
2017-10-15T11:43:02.988Z,35.95
2017-10-15T11:44:03.744Z,36.09
2017-10-15T11:45:03.258Z,36.28
2017-10-15T11:46:02.866Z,36.31
2017-10-15T11:47:02.459Z,36.55
2017-10-15T11:48:03.779Z,36.67
2017-10-15T11:49:03.328Z,36.54
2017-10-15T11:50:02.910Z,36.77
2017-10-15T11:51:02.654Z,36.58
2017-10-15T11:52:02.736Z,36.88
2017-10-15T11:53:03.374Z,37.14
2017-10-15T11:54:03.006Z,37.48
2017-10-15T11:55:03.102Z,37.03
2017-10-15T11:56:02.658Z,36.99
2017-10-15T11:57:03.323Z,37.14
2017-10-15T11:58:03.034Z,36.77
2017-10-15T11:59:03.540Z,36.88
2017-10-15T12:00:03.526Z,36.96
2017-10-15T12:01:02.978Z,36.83
2017-10-15T12:02:03.173Z,36.39
2017-10-15T12:03:02.802Z,36.45
2017-10-15T12:04:03.312Z,36.46
2017-10-15T12:05:02.818Z,36.93
2017-10-15T12:06:03.457Z,36.73
2017-10-15T12:07:02.894Z,36.64
2017-10-15T12:08:02.861Z,36.55
2017-10-15T12:09:03.966Z,37.06
2017-10-15T12:10:02.539Z,37.11
2017-10-15T12:11:03.974Z,37.32
2017-10-15T12:12:03.656Z,37.44
2017-10-15T12:13:02.732Z,37.53
2017-10-15T12:14:03.226Z,37.10
2017-10-15T12:15:02.817Z,37.14
2017-10-15T12:16:04.357Z,37.26
2017-10-15T12:17:02.985Z,36.52
2017-10-15T12:18:03.148Z,36.62
2017-10-15T12:19:02.708Z,36.61
2017-10-15T12:20:02.689Z,36.43
2017-10-15T12:21:03.240Z,36.52
2017-10-15T12:22:04.836Z,36.76
2017-10-15T12:23:02.839Z,36.99
2017-10-15T12:24:02.961Z,37.01
2017-10-15T12:25:03.199Z,36.67
2017-10-15T12:26:02.543Z,36.72
2017-10-15T12:27:03.929Z,36.55
2017-10-15T12:28:02.961Z,36.23
2017-10-15T12:29:04.759Z,36.35
2017-10-15T12:30:03.071Z,36.57
2017-10-15T12:31:02.723Z,36.36
2017-10-15T12:32:03.269Z,36.14
2017-10-15T12:33:05.322Z,36.05
2017-10-15T12:34:02.749Z,35.95
2017-10-15T12:35:03.259Z,36.12
2017-10-15T12:36:02.848Z,35.97
2017-10-15T12:37:04.054Z,35.85
2017-10-15T12:38:02.625Z,36.12
2017-10-15T12:39:03.334Z,35.88
2017-10-15T12:40:02.806Z,35.82
2017-10-15T12:41:03.191Z,35.93
2017-10-15T12:42:02.990Z,35.85
2017-10-15T12:43:02.680Z,36.00
2017-10-15T12:44:03.290Z,35.56
2017-10-15T12:45:03.475Z,34.58
2017-10-15T12:46:03.125Z,34.25
2017-10-15T12:47:03.531Z,34.30
2017-10-15T12:48:02.970Z,34.10
2017-10-15T12:49:03.162Z,33.80
2017-10-15T12:50:03.288Z,33.34
2017-10-15T12:51:02.641Z,33.83
2017-10-15T12:52:02.604Z,34.05